sensor_id;sensor_type;location;lat;lon;timestamp;temperature;humidity
27226;DHT22;14732;51.074;3.788;2024-03-23T00:53:49;9.50;99.90
27226;DHT22;14732;51.074;3.788;2024-03-23T00:56:15;9.50;99.90
27226;DHT22;14732;51.074;3.788;2024-03-23T00:58:40;9.60;99.90
27226;DHT22;14732;51.074;3.788;2024-03-23T01:04:29;9.50;99.90
27226;DHT22;14732;51.074;3.788;2024-03-23T01:06:55;9.50;99.90
27226;DHT22;14732;51.074;3.788;2024-03-23T01:09:20;9.60;99.90
27226;DHT22;14732;51.074;3.788;2024-03-23T01:11:46;9.60;99.90
27226;DHT22;14732;51.074;3.788;2024-03-23T01:14:11;9.60;99.90
27226;DHT22;14732;51.074;3.788;2024-03-23T01:16:37;9.70;99.90
27226;DHT22;14732;51.074;3.788;2024-03-23T01:19:03;9.70;99.90
27226;DHT22;14732;51.074;3.788;2024-03-23T01:21:28;9.60;99.90
27226;DHT22;14732;51.074;3.788;2024-03-23T01:24:03;9.60;99.90
27226;DHT22;14732;51.074;3.788;2024-03-23T01:33:17;9.70;99.90
27226;DHT22;14732;51.074;3.788;2024-03-23T01:35:43;9.60;99.90
27226;DHT22;14732;51.074;3.788;2024-03-23T01:38:22;9.50;99.90
27226;DHT22;14732;51.074;3.788;2024-03-23T01:47:36;9.40;99.90
27226;DHT22;14732;51.074;3.788;2024-03-23T01:50:22;9.30;99.90
27226;DHT22;14732;51.074;3.788;2024-03-23T01:52:49;9.20;99.90
27226;DHT22;14732;51.074;3.788;2024-03-23T01:55:15;9.10;99.90
27226;DHT22;14732;51.074;3.788;2024-03-23T01:57:40;9.10;99.90
27226;DHT22;14732;51.074;3.788;2024-03-23T02:00:07;9.00;99.90
27226;DHT22;14732;51.074;3.788;2024-03-23T02:02:33;9.00;99.90
27226;DHT22;14732;51.074;3.788;2024-03-23T02:04:58;9.00;99.90
27226;DHT22;14732;51.074;3.788;2024-03-23T02:07:24;9.10;99.90
27226;DHT22;14732;51.074;3.788;2024-03-23T02:09:51;9.00;99.90
27226;DHT22;14732;51.074;3.788;2024-03-23T02:12:17;9.10;99.90
27226;DHT22;14732;51.074;3.788;2024-03-23T02:14:43;9.00;99.90
27226;DHT22;14732;51.074;3.788;2024-03-23T02:17:09;9.00;99.90
27226;DHT22;14732;51.074;3.788;2024-03-23T02:19:35;9.00;99.90
27226;DHT22;14732;51.074;3.788;2024-03-23T02:22:00;9.00;99.90
27226;DHT22;14732;51.074;3.788;2024-03-23T02:24:26;9.00;99.90
27226;DHT22;14732;51.074;3.788;2024-03-23T02:26:51;9.10;99.90
27226;DHT22;14732;51.074;3.788;2024-03-23T02:29:17;9.20;99.90
27226;DHT22;14732;51.074;3.788;2024-03-23T02:31:43;9.20;99.90
27226;DHT22;14732;51.074;3.788;2024-03-23T02:34:08;9.30;99.90
27226;DHT22;14732;51.074;3.788;2024-03-23T02:36:34;9.20;99.90
27226;DHT22;14732;51.074;3.788;2024-03-23T02:38:59;9.20;99.90
27226;DHT22;14732;51.074;3.788;2024-03-23T02:41:25;9.10;99.90
27226;DHT22;14732;51.074;3.788;2024-03-23T02:43:51;9.10;99.90
27226;DHT22;14732;51.074;3.788;2024-03-23T02:46:16;9.20;99.90
27226;DHT22;14732;51.074;3.788;2024-03-23T02:48:42;9.10;99.90
27226;DHT22;14732;51.074;3.788;2024-03-23T02:51:08;9.10;99.90
27226;DHT22;14732;51.074;3.788;2024-03-23T02:53:34;9.20;99.90
27226;DHT22;14732;51.074;3.788;2024-03-23T02:55:59;9.30;99.90
27226;DHT22;14732;51.074;3.788;2024-03-23T02:58:25;9.30;99.90
27226;DHT22;14732;51.074;3.788;2024-03-23T03:00:51;9.20;99.90
27226;DHT22;14732;51.074;3.788;2024-03-23T03:03:16;9.10;99.90
27226;DHT22;14732;51.074;3.788;2024-03-23T03:05:42;9.20;99.90
27226;DHT22;14732;51.074;3.788;2024-03-23T03:08:09;9.30;99.90
27226;DHT22;14732;51.074;3.788;2024-03-23T03:10:34;9.20;99.90
27226;DHT22;14732;51.074;3.788;2024-03-23T03:13:02;9.20;99.90
27226;DHT22;14732;51.074;3.788;2024-03-23T03:15:28;9.10;99.90
27226;DHT22;14732;51.074;3.788;2024-03-23T03:17:53;9.10;99.90
27226;DHT22;14732;51.074;3.788;2024-03-23T03:20:19;9.00;99.90
27226;DHT22;14732;51.074;3.788;2024-03-23T03:22:47;9.00;99.90
27226;DHT22;14732;51.074;3.788;2024-03-23T03:25:13;9.10;99.90
27226;DHT22;14732;51.074;3.788;2024-03-23T03:27:38;9.00;99.90
27226;DHT22;14732;51.074;3.788;2024-03-23T03:30:04;9.10;99.90
27226;DHT22;14732;51.074;3.788;2024-03-23T03:32:32;9.00;99.90
27226;DHT22;14732;51.074;3.788;2024-03-23T03:34:58;8.90;99.90
27226;DHT22;14732;51.074;3.788;2024-03-23T03:37:24;8.80;99.90
27226;DHT22;14732;51.074;3.788;2024-03-23T03:39:50;8.60;99.90
27226;DHT22;14732;51.074;3.788;2024-03-23T03:42:16;8.70;99.90
27226;DHT22;14732;51.074;3.788;2024-03-23T03:44:41;8.60;99.90
27226;DHT22;14732;51.074;3.788;2024-03-23T03:47:07;8.60;99.90
27226;DHT22;14732;51.074;3.788;2024-03-23T03:49:33;8.60;99.90
27226;DHT22;14732;51.074;3.788;2024-03-23T03:51:58;8.60;99.90
27226;DHT22;14732;51.074;3.788;2024-03-23T03:54:26;8.50;99.90
27226;DHT22;14732;51.074;3.788;2024-03-23T03:56:52;8.50;99.90
27226;DHT22;14732;51.074;3.788;2024-03-23T03:59:17;8.60;99.90
27226;DHT22;14732;51.074;3.788;2024-03-23T04:01:43;8.70;99.90
27226;DHT22;14732;51.074;3.788;2024-03-23T04:04:09;8.60;99.90
27226;DHT22;14732;51.074;3.788;2024-03-23T04:06:34;8.60;99.90
27226;DHT22;14732;51.074;3.788;2024-03-23T04:09:00;8.70;99.90
27226;DHT22;14732;51.074;3.788;2024-03-23T04:11:26;8.60;99.90
27226;DHT22;14732;51.074;3.788;2024-03-23T04:13:52;8.70;99.90
27226;DHT22;14732;51.074;3.788;2024-03-23T04:16:28;8.60;99.90
27226;DHT22;14732;51.074;3.788;2024-03-23T04:18:53;8.60;99.90
27226;DHT22;14732;51.074;3.788;2024-03-23T04:21:19;8.70;99.90
27226;DHT22;14732;51.074;3.788;2024-03-23T04:23:45;8.70;99.90
27226;DHT22;14732;51.074;3.788;2024-03-23T04:26:11;8.70;99.90
27226;DHT22;14732;51.074;3.788;2024-03-23T04:28:37;8.70;99.90
27226;DHT22;14732;51.074;3.788;2024-03-23T04:31:05;8.70;99.90
27226;DHT22;14732;51.074;3.788;2024-03-23T04:33:31;8.60;99.90
27226;DHT22;14732;51.074;3.788;2024-03-23T04:35:57;8.50;99.90
27226;DHT22;14732;51.074;3.788;2024-03-23T04:38:22;8.50;99.90
27226;DHT22;14732;51.074;3.788;2024-03-23T04:40:58;8.40;99.90
27226;DHT22;14732;51.074;3.788;2024-03-23T04:43:26;8.30;99.90
27226;DHT22;14732;51.074;3.788;2024-03-23T04:45:52;8.20;99.90
27226;DHT22;14732;51.074;3.788;2024-03-23T04:48:20;8.20;99.90
27226;DHT22;14732;51.074;3.788;2024-03-23T04:50:46;8.20;99.90
27226;DHT22;14732;51.074;3.788;2024-03-23T04:53:12;8.20;99.90
27226;DHT22;14732;51.074;3.788;2024-03-23T04:55:37;8.20;99.90
27226;DHT22;14732;51.074;3.788;2024-03-23T04:58:03;8.20;99.90
27226;DHT22;14732;51.074;3.788;2024-03-23T05:00:29;8.20;99.90
27226;DHT22;14732;51.074;3.788;2024-03-23T05:02:54;8.10;99.90
27226;DHT22;14732;51.074;3.788;2024-03-23T05:05:20;8.10;99.90
27226;DHT22;14732;51.074;3.788;2024-03-23T05:07:46;8.10;99.90
27226;DHT22;14732;51.074;3.788;2024-03-23T05:10:11;8.00;99.90
27226;DHT22;14732;51.074;3.788;2024-03-23T05:12:39;8.00;99.90
27226;DHT22;14732;51.074;3.788;2024-03-23T05:15:05;8.20;99.90
27226;DHT22;14732;51.074;3.788;2024-03-23T05:17:32;8.20;99.90
27226;DHT22;14732;51.074;3.788;2024-03-23T05:19:58;8.30;99.90
27226;DHT22;14732;51.074;3.788;2024-03-23T05:22:24;8.30;99.90
27226;DHT22;14732;51.074;3.788;2024-03-23T05:24:49;8.30;99.90
27226;DHT22;14732;51.074;3.788;2024-03-23T05:27:15;8.50;99.90
27226;DHT22;14732;51.074;3.788;2024-03-23T05:29:41;8.40;99.90
27226;DHT22;14732;51.074;3.788;2024-03-23T05:32:07;8.40;99.90
27226;DHT22;14732;51.074;3.788;2024-03-23T05:34:33;8.30;99.90
27226;DHT22;14732;51.074;3.788;2024-03-23T05:36:59;8.40;99.90
27226;DHT22;14732;51.074;3.788;2024-03-23T05:39:24;8.40;99.90
27226;DHT22;14732;51.074;3.788;2024-03-23T05:41:50;8.40;99.90
27226;DHT22;14732;51.074;3.788;2024-03-23T05:44:16;8.50;99.90
27226;DHT22;14732;51.074;3.788;2024-03-23T05:46:42;8.30;99.90
27226;DHT22;14732;51.074;3.788;2024-03-23T05:49:08;8.30;99.90
27226;DHT22;14732;51.074;3.788;2024-03-23T05:51:34;8.30;99.90
27226;DHT22;14732;51.074;3.788;2024-03-23T05:54:00;8.20;99.90
27226;DHT22;14732;51.074;3.788;2024-03-23T05:56:26;8.20;99.90
27226;DHT22;14732;51.074;3.788;2024-03-23T05:58:52;8.20;99.90
27226;DHT22;14732;51.074;3.788;2024-03-23T06:01:18;8.20;99.90
27226;DHT22;14732;51.074;3.788;2024-03-23T06:03:43;8.20;99.90
27226;DHT22;14732;51.074;3.788;2024-03-23T06:06:10;8.20;99.90
27226;DHT22;14732;51.074;3.788;2024-03-23T06:08:37;8.30;99.90
27226;DHT22;14732;51.074;3.788;2024-03-23T06:11:04;8.60;99.90
27226;DHT22;14732;51.074;3.788;2024-03-23T06:13:31;8.80;99.90
27226;DHT22;14732;51.074;3.788;2024-03-23T06:15:57;8.80;99.90
27226;DHT22;14732;51.074;3.788;2024-03-23T06:18:24;8.80;99.90
27226;DHT22;14732;51.074;3.788;2024-03-23T06:20:49;8.90;99.90
27226;DHT22;14732;51.074;3.788;2024-03-23T06:23:15;9.20;99.90
27226;DHT22;14732;51.074;3.788;2024-03-23T06:25:42;9.00;99.90
27226;DHT22;14732;51.074;3.788;2024-03-23T06:28:08;9.10;99.90
27226;DHT22;14732;51.074;3.788;2024-03-23T06:30:34;9.20;99.90
27226;DHT22;14732;51.074;3.788;2024-03-23T06:32:59;9.20;99.90
27226;DHT22;14732;51.074;3.788;2024-03-23T06:35:25;9.10;99.90
27226;DHT22;14732;51.074;3.788;2024-03-23T06:37:51;9.00;99.90
27226;DHT22;14732;51.074;3.788;2024-03-23T06:40:16;9.10;99.90
27226;DHT22;14732;51.074;3.788;2024-03-23T06:42:42;9.40;99.90
27226;DHT22;14732;51.074;3.788;2024-03-23T06:45:08;9.60;99.90
27226;DHT22;14732;51.074;3.788;2024-03-23T06:47:33;9.80;99.90
27226;DHT22;14732;51.074;3.788;2024-03-23T06:50:00;10.10;99.90
27226;DHT22;14732;51.074;3.788;2024-03-23T06:52:32;10.50;99.90
27226;DHT22;14732;51.074;3.788;2024-03-23T06:54:58;10.60;99.90
27226;DHT22;14732;51.074;3.788;2024-03-23T06:57:24;10.80;99.90
27226;DHT22;14732;51.074;3.788;2024-03-23T06:59:49;10.80;99.90
27226;DHT22;14732;51.074;3.788;2024-03-23T07:02:15;10.70;99.90
27226;DHT22;14732;51.074;3.788;2024-03-23T07:04:41;10.80;99.90
27226;DHT22;14732;51.074;3.788;2024-03-23T07:07:07;11.50;99.90
27226;DHT22;14732;51.074;3.788;2024-03-23T07:09:33;11.80;99.90
27226;DHT22;14732;51.074;3.788;2024-03-23T07:11:58;11.70;99.90
27226;DHT22;14732;51.074;3.788;2024-03-23T07:14:24;12.20;99.90
27226;DHT22;14732;51.074;3.788;2024-03-23T07:16:51;12.70;99.90
27226;DHT22;14732;51.074;3.788;2024-03-23T07:19:18;13.10;99.90
27226;DHT22;14732;51.074;3.788;2024-03-23T07:21:44;13.10;99.90
27226;DHT22;14732;51.074;3.788;2024-03-23T07:24:10;12.30;99.90
27226;DHT22;14732;51.074;3.788;2024-03-23T07:26:36;11.80;99.90
27226;DHT22;14732;51.074;3.788;2024-03-23T07:29:03;11.80;99.90
27226;DHT22;14732;51.074;3.788;2024-03-23T07:31:29;11.90;99.90
27226;DHT22;14732;51.074;3.788;2024-03-23T07:33:54;12.50;99.90
27226;DHT22;14732;51.074;3.788;2024-03-23T07:36:20;13.20;99.90
27226;DHT22;14732;51.074;3.788;2024-03-23T07:38:45;12.70;99.90
27226;DHT22;14732;51.074;3.788;2024-03-23T07:41:15;12.20;99.90
27226;DHT22;14732;51.074;3.788;2024-03-23T07:43:42;12.00;99.90
27226;DHT22;14732;51.074;3.788;2024-03-23T07:46:08;11.60;99.90
27226;DHT22;14732;51.074;3.788;2024-03-23T07:48:34;11.20;99.90
27226;DHT22;14732;51.074;3.788;2024-03-23T07:51:43;11.20;99.90
27226;DHT22;14732;51.074;3.788;2024-03-23T07:53:49;10.60;99.90
27226;DHT22;14732;51.074;3.788;2024-03-23T07:56:15;10.20;99.90
27226;DHT22;14732;51.074;3.788;2024-03-23T07:58:41;9.90;99.90
27226;DHT22;14732;51.074;3.788;2024-03-23T08:01:12;9.80;99.90
27226;DHT22;14732;51.074;3.788;2024-03-23T08:03:39;10.30;99.90
27226;DHT22;14732;51.074;3.788;2024-03-23T08:06:12;10.90;99.90
27226;DHT22;14732;51.074;3.788;2024-03-23T08:08:39;11.40;99.90
27226;DHT22;14732;51.074;3.788;2024-03-23T08:11:05;11.60;99.90
27226;DHT22;14732;51.074;3.788;2024-03-23T08:13:31;11.80;99.90
27226;DHT22;14732;51.074;3.788;2024-03-23T08:15:58;12.00;99.90
27226;DHT22;14732;51.074;3.788;2024-03-23T08:18:24;12.20;99.90
27226;DHT22;14732;51.074;3.788;2024-03-23T08:23:26;12.60;99.90
27226;DHT22;14732;51.074;3.788;2024-03-23T08:25:57;12.80;99.90
27226;DHT22;14732;51.074;3.788;2024-03-23T08:28:22;12.90;99.90
27226;DHT22;14732;51.074;3.788;2024-03-23T08:30:48;12.80;99.90
27226;DHT22;14732;51.074;3.788;2024-03-23T08:33:15;12.60;99.90
27226;DHT22;14732;51.074;3.788;2024-03-23T08:35:41;12.60;99.90
27226;DHT22;14732;51.074;3.788;2024-03-23T08:38:07;12.40;99.90
27226;DHT22;14732;51.074;3.788;2024-03-23T08:40:32;12.20;99.90
27226;DHT22;14732;51.074;3.788;2024-03-23T08:42:58;11.80;99.90
27226;DHT22;14732;51.074;3.788;2024-03-23T08:45:27;11.60;99.90
27226;DHT22;14732;51.074;3.788;2024-03-23T08:47:52;11.30;99.90
27226;DHT22;14732;51.074;3.788;2024-03-23T08:50:18;10.60;99.90
27226;DHT22;14732;51.074;3.788;2024-03-23T08:52:44;10.20;99.90
27226;DHT22;14732;51.074;3.788;2024-03-23T08:55:10;10.20;99.90
27226;DHT22;14732;51.074;3.788;2024-03-23T08:57:35;10.60;99.90
27226;DHT22;14732;51.074;3.788;2024-03-23T09:00:02;11.50;99.90
27226;DHT22;14732;51.074;3.788;2024-03-23T09:02:28;12.60;99.90
27226;DHT22;14732;51.074;3.788;2024-03-23T09:04:53;13.10;99.90
27226;DHT22;14732;51.074;3.788;2024-03-23T09:07:19;13.60;99.90
27226;DHT22;14732;51.074;3.788;2024-03-23T09:09:44;13.50;99.90
27226;DHT22;14732;51.074;3.788;2024-03-23T09:12:10;13.30;99.90
27226;DHT22;14732;51.074;3.788;2024-03-23T09:14:36;12.80;99.90
27226;DHT22;14732;51.074;3.788;2024-03-23T09:17:01;12.40;99.90
27226;DHT22;14732;51.074;3.788;2024-03-23T09:19:28;13.50;99.90
27226;DHT22;14732;51.074;3.788;2024-03-23T09:21:54;14.70;99.90
27226;DHT22;14732;51.074;3.788;2024-03-23T09:24:20;16.40;99.90
27226;DHT22;14732;51.074;3.788;2024-03-23T09:26:46;17.70;99.90
27226;DHT22;14732;51.074;3.788;2024-03-23T09:29:12;17.60;99.90
27226;DHT22;14732;51.074;3.788;2024-03-23T09:31:37;16.90;99.90
27226;DHT22;14732;51.074;3.788;2024-03-23T09:34:04;17.20;99.90
27226;DHT22;14732;51.074;3.788;2024-03-23T09:36:29;17.00;99.90
27226;DHT22;14732;51.074;3.788;2024-03-23T09:38:55;17.10;99.90
27226;DHT22;14732;51.074;3.788;2024-03-23T09:41:20;16.00;99.90
27226;DHT22;14732;51.074;3.788;2024-03-23T09:43:46;15.40;99.90
27226;DHT22;14732;51.074;3.788;2024-03-23T09:46:14;14.70;99.90
27226;DHT22;14732;51.074;3.788;2024-03-23T09:48:40;14.00;99.90
27226;DHT22;14732;51.074;3.788;2024-03-23T09:51:07;13.50;99.90
27226;DHT22;14732;51.074;3.788;2024-03-23T09:53:34;13.20;99.90
27226;DHT22;14732;51.074;3.788;2024-03-23T09:56:00;12.70;99.90
27226;DHT22;14732;51.074;3.788;2024-03-23T09:58:25;12.70;99.90
27226;DHT22;14732;51.074;3.788;2024-03-23T10:00:51;12.30;99.90
27226;DHT22;14732;51.074;3.788;2024-03-23T10:03:17;12.00;99.90
27226;DHT22;14732;51.074;3.788;2024-03-23T10:05:42;11.80;99.90
27226;DHT22;14732;51.074;3.788;2024-03-23T10:10:44;11.50;99.90
27226;DHT22;14732;51.074;3.788;2024-03-23T10:13:33;11.40;99.90
27226;DHT22;14732;51.074;3.788;2024-03-23T10:15:58;11.40;99.90
27226;DHT22;14732;51.074;3.788;2024-03-23T10:18:25;11.60;99.90
27226;DHT22;14732;51.074;3.788;2024-03-23T10:21:10;11.60;99.90
27226;DHT22;14732;51.074;3.788;2024-03-23T10:23:40;11.70;99.90
27226;DHT22;14732;51.074;3.788;2024-03-23T10:26:21;11.80;99.90
27226;DHT22;14732;51.074;3.788;2024-03-23T10:28:58;11.80;99.90
27226;DHT22;14732;51.074;3.788;2024-03-23T10:31:29;11.90;99.90
27226;DHT22;14732;51.074;3.788;2024-03-23T10:33:55;11.90;99.90
27226;DHT22;14732;51.074;3.788;2024-03-23T10:36:22;12.00;99.90
27226;DHT22;14732;51.074;3.788;2024-03-23T10:38:48;12.40;99.90
27226;DHT22;14732;51.074;3.788;2024-03-23T10:41:14;12.40;99.90
27226;DHT22;14732;51.074;3.788;2024-03-23T10:43:40;12.40;99.90
27226;DHT22;14732;51.074;3.788;2024-03-23T10:46:08;12.50;99.90
27226;DHT22;14732;51.074;3.788;2024-03-23T10:48:34;12.60;99.90
27226;DHT22;14732;51.074;3.788;2024-03-23T10:51:00;12.40;99.90
27226;DHT22;14732;51.074;3.788;2024-03-23T10:53:27;12.30;99.90
27226;DHT22;14732;51.074;3.788;2024-03-23T10:55:57;12.20;99.90
27226;DHT22;14732;51.074;3.788;2024-03-23T10:58:41;12.30;99.90
27226;DHT22;14732;51.074;3.788;2024-03-23T11:01:11;12.70;99.90
27226;DHT22;14732;51.074;3.788;2024-03-23T11:03:38;12.80;99.90
27226;DHT22;14732;51.074;3.788;2024-03-23T11:06:05;13.40;99.90
27226;DHT22;14732;51.074;3.788;2024-03-23T11:13:38;13.00;99.90
27226;DHT22;14732;51.074;3.788;2024-03-23T11:16:21;13.30;99.90
27226;DHT22;14732;51.074;3.788;2024-03-23T11:18:47;13.20;99.90
27226;DHT22;14732;51.074;3.788;2024-03-23T11:21:54;13.10;99.90
27226;DHT22;14732;51.074;3.788;2024-03-23T11:24:21;13.10;99.90
27226;DHT22;14732;51.074;3.788;2024-03-23T11:26:48;13.10;99.90
27226;DHT22;14732;51.074;3.788;2024-03-23T11:29:15;13.10;99.90
27226;DHT22;14732;51.074;3.788;2024-03-23T11:31:52;13.00;99.90
27226;DHT22;14732;51.074;3.788;2024-03-23T11:34:19;13.20;99.90
27226;DHT22;14732;51.074;3.788;2024-03-23T11:36:46;13.30;99.90
27226;DHT22;14732;51.074;3.788;2024-03-23T11:39:13;13.50;99.90
27226;DHT22;14732;51.074;3.788;2024-03-23T11:41:51;13.40;99.90
27226;DHT22;14732;51.074;3.788;2024-03-23T11:44:19;13.50;99.90
27226;DHT22;14732;51.074;3.788;2024-03-23T11:46:46;13.60;99.90
27226;DHT22;14732;51.074;3.788;2024-03-23T11:49:28;13.60;99.90
27226;DHT22;14732;51.074;3.788;2024-03-23T11:51:56;13.40;99.90
27226;DHT22;14732;51.074;3.788;2024-03-23T11:54:26;13.20;99.90
27226;DHT22;14732;51.074;3.788;2024-03-23T12:01:58;12.80;99.90
27226;DHT22;14732;51.074;3.788;2024-03-23T12:04:30;12.80;99.90
27226;DHT22;14732;51.074;3.788;2024-03-23T12:07:21;12.90;99.90
27226;DHT22;14732;51.074;3.788;2024-03-23T12:10:05;13.10;99.90
27226;DHT22;14732;51.074;3.788;2024-03-23T12:12:34;13.20;99.90
27226;DHT22;14732;51.074;3.788;2024-03-23T12:15:04;13.30;99.90
27226;DHT22;14732;51.074;3.788;2024-03-23T12:17:32;13.30;99.90
27226;DHT22;14732;51.074;3.788;2024-03-23T12:19:58;13.20;99.90
27226;DHT22;14732;51.074;3.788;2024-03-23T12:22:24;13.20;99.90
27226;DHT22;14732;51.074;3.788;2024-03-23T12:24:50;13.00;99.90
27226;DHT22;14732;51.074;3.788;2024-03-23T12:27:15;12.80;99.90
27226;DHT22;14732;51.074;3.788;2024-03-23T12:29:42;12.90;99.90
27226;DHT22;14732;51.074;3.788;2024-03-23T12:32:09;13.00;99.90
27226;DHT22;14732;51.074;3.788;2024-03-23T12:34:34;13.00;99.90
27226;DHT22;14732;51.074;3.788;2024-03-23T12:37:00;12.90;99.90
27226;DHT22;14732;51.074;3.788;2024-03-23T12:39:26;13.00;99.90
27226;DHT22;14732;51.074;3.788;2024-03-23T12:41:52;13.20;99.90
27226;DHT22;14732;51.074;3.788;2024-03-23T12:44:18;13.30;99.90
27226;DHT22;14732;51.074;3.788;2024-03-23T12:46:44;13.10;99.90
27226;DHT22;14732;51.074;3.788;2024-03-23T12:49:11;13.00;99.90
27226;DHT22;14732;51.074;3.788;2024-03-23T12:51:37;13.10;99.90
27226;DHT22;14732;51.074;3.788;2024-03-23T12:54:03;12.90;99.90
27226;DHT22;14732;51.074;3.788;2024-03-23T12:56:29;12.80;99.90
27226;DHT22;14732;51.074;3.788;2024-03-23T12:58:55;12.80;99.90
27226;DHT22;14732;51.074;3.788;2024-03-23T13:01:26;12.40;99.90
27226;DHT22;14732;51.074;3.788;2024-03-23T13:03:52;12.30;99.90
27226;DHT22;14732;51.074;3.788;2024-03-23T13:06:18;12.40;99.90
27226;DHT22;14732;51.074;3.788;2024-03-23T13:08:45;12.30;99.90
27226;DHT22;14732;51.074;3.788;2024-03-23T13:11:11;12.20;99.90
27226;DHT22;14732;51.074;3.788;2024-03-23T13:13:37;11.90;99.90
27226;DHT22;14732;51.074;3.788;2024-03-23T13:16:03;12.10;99.90
27226;DHT22;14732;51.074;3.788;2024-03-23T13:18:32;12.30;99.90
27226;DHT22;14732;51.074;3.788;2024-03-23T13:20:58;12.30;99.90
27226;DHT22;14732;51.074;3.788;2024-03-23T13:23:24;12.10;99.90
27226;DHT22;14732;51.074;3.788;2024-03-23T13:25:54;12.10;99.90
27226;DHT22;14732;51.074;3.788;2024-03-23T13:28:20;12.10;99.90
27226;DHT22;14732;51.074;3.788;2024-03-23T13:30:52;12.10;99.90
27226;DHT22;14732;51.074;3.788;2024-03-23T13:33:18;12.10;99.90
27226;DHT22;14732;51.074;3.788;2024-03-23T13:35:54;12.00;99.90
27226;DHT22;14732;51.074;3.788;2024-03-23T13:38:23;12.00;99.90
27226;DHT22;14732;51.074;3.788;2024-03-23T13:43:18;12.40;99.90
27226;DHT22;14732;51.074;3.788;2024-03-23T13:45:45;12.50;99.90
27226;DHT22;14732;51.074;3.788;2024-03-23T13:48:10;12.50;99.90
27226;DHT22;14732;51.074;3.788;2024-03-23T13:50:36;12.70;99.90
27226;DHT22;14732;51.074;3.788;2024-03-23T13:53:02;12.70;99.90
27226;DHT22;14732;51.074;3.788;2024-03-23T13:55:27;12.50;99.90
27226;DHT22;14732;51.074;3.788;2024-03-23T13:57:53;12.70;99.90
27226;DHT22;14732;51.074;3.788;2024-03-23T14:00:19;12.70;99.90
27226;DHT22;14732;51.074;3.788;2024-03-23T14:02:45;12.80;99.90
27226;DHT22;14732;51.074;3.788;2024-03-23T14:05:11;12.90;99.90
27226;DHT22;14732;51.074;3.788;2024-03-23T14:07:37;12.90;99.90
27226;DHT22;14732;51.074;3.788;2024-03-23T14:10:06;12.90;99.90
27226;DHT22;14732;51.074;3.788;2024-03-23T14:12:32;12.80;99.90
27226;DHT22;14732;51.074;3.788;2024-03-23T14:14:57;12.90;99.90
27226;DHT22;14732;51.074;3.788;2024-03-23T14:17:23;13.10;99.90
27226;DHT22;14732;51.074;3.788;2024-03-23T14:19:48;13.10;99.90
27226;DHT22;14732;51.074;3.788;2024-03-23T14:22:15;13.30;99.90
27226;DHT22;14732;51.074;3.788;2024-03-23T14:24:45;13.40;99.90
27226;DHT22;14732;51.074;3.788;2024-03-23T14:27:10;13.30;99.90
27226;DHT22;14732;51.074;3.788;2024-03-23T14:29:36;13.00;99.90
27226;DHT22;14732;51.074;3.788;2024-03-23T14:32:02;12.80;99.90
27226;DHT22;14732;51.074;3.788;2024-03-23T14:34:27;12.80;99.90
27226;DHT22;14732;51.074;3.788;2024-03-23T14:36:54;12.70;99.90
27226;DHT22;14732;51.074;3.788;2024-03-23T14:39:23;12.50;99.90
27226;DHT22;14732;51.074;3.788;2024-03-23T14:41:50;12.20;99.90
27226;DHT22;14732;51.074;3.788;2024-03-23T14:44:16;12.10;99.90
27226;DHT22;14732;51.074;3.788;2024-03-23T14:46:41;12.10;99.90
27226;DHT22;14732;51.074;3.788;2024-03-23T14:49:08;12.20;99.90
27226;DHT22;14732;51.074;3.788;2024-03-23T14:51:34;12.40;99.90
27226;DHT22;14732;51.074;3.788;2024-03-23T14:54:00;12.30;99.90
27226;DHT22;14732;51.074;3.788;2024-03-23T14:56:25;12.60;99.90
27226;DHT22;14732;51.074;3.788;2024-03-23T14:58:54;12.70;99.90
27226;DHT22;14732;51.074;3.788;2024-03-23T15:01:21;12.70;99.90
27226;DHT22;14732;51.074;3.788;2024-03-23T15:03:46;12.30;99.90
27226;DHT22;14732;51.074;3.788;2024-03-23T15:06:13;12.10;99.90
27226;DHT22;14732;51.074;3.788;2024-03-23T15:08:39;11.90;99.90
27226;DHT22;14732;51.074;3.788;2024-03-23T15:11:06;11.80;99.90
27226;DHT22;14732;51.074;3.788;2024-03-23T15:13:35;11.70;99.90
27226;DHT22;14732;51.074;3.788;2024-03-23T15:16:02;11.60;99.90
27226;DHT22;14732;51.074;3.788;2024-03-23T15:18:32;11.40;99.90
27226;DHT22;14732;51.074;3.788;2024-03-23T15:21:02;11.40;99.90
27226;DHT22;14732;51.074;3.788;2024-03-23T15:23:31;11.40;99.90
27226;DHT22;14732;51.074;3.788;2024-03-23T15:25:58;11.30;99.90
27226;DHT22;14732;51.074;3.788;2024-03-23T15:28:24;11.40;99.90
27226;DHT22;14732;51.074;3.788;2024-03-23T15:31:04;11.30;99.90
27226;DHT22;14732;51.074;3.788;2024-03-23T15:33:29;11.40;99.90
27226;DHT22;14732;51.074;3.788;2024-03-23T15:35:59;11.50;99.90
27226;DHT22;14732;51.074;3.788;2024-03-23T15:38:24;11.80;99.90
27226;DHT22;14732;51.074;3.788;2024-03-23T15:40:53;12.00;99.90
27226;DHT22;14732;51.074;3.788;2024-03-23T15:43:19;12.00;99.90
27226;DHT22;14732;51.074;3.788;2024-03-23T15:45:54;11.80;99.90
27226;DHT22;14732;51.074;3.788;2024-03-23T15:48:19;11.70;99.90
27226;DHT22;14732;51.074;3.788;2024-03-23T15:50:59;11.30;99.90
27226;DHT22;14732;51.074;3.788;2024-03-23T15:53:25;10.80;99.90
27226;DHT22;14732;51.074;3.788;2024-03-23T15:55:55;10.40;99.90
27226;DHT22;14732;51.074;3.788;2024-03-23T15:58:24;10.30;99.90
27226;DHT22;14732;51.074;3.788;2024-03-23T16:01:01;10.10;99.90
27226;DHT22;14732;51.074;3.788;2024-03-23T16:03:28;9.90;99.90
27226;DHT22;14732;51.074;3.788;2024-03-23T16:06:01;9.90;99.90
27226;DHT22;14732;51.074;3.788;2024-03-23T16:08:28;10.00;99.90
27226;DHT22;14732;51.074;3.788;2024-03-23T16:10:54;10.00;99.90
27226;DHT22;14732;51.074;3.788;2024-03-23T16:13:21;10.20;99.90
27226;DHT22;14732;51.074;3.788;2024-03-23T16:16:00;10.00;99.90
27226;DHT22;14732;51.074;3.788;2024-03-23T16:18:29;9.90;99.90
27226;DHT22;14732;51.074;3.788;2024-03-23T16:21:05;9.90;99.90
27226;DHT22;14732;51.074;3.788;2024-03-23T16:23:35;9.80;99.90
27226;DHT22;14732;51.074;3.788;2024-03-23T16:26:03;9.70;99.90
27226;DHT22;14732;51.074;3.788;2024-03-23T16:28:33;9.70;99.90
27226;DHT22;14732;51.074;3.788;2024-03-23T16:31:04;9.70;99.90
27226;DHT22;14732;51.074;3.788;2024-03-23T16:33:31;9.80;99.90
27226;DHT22;14732;51.074;3.788;2024-03-23T16:38:27;9.70;99.90
27226;DHT22;14732;51.074;3.788;2024-03-23T16:40:54;9.70;99.90
27226;DHT22;14732;51.074;3.788;2024-03-23T16:43:20;9.60;99.90
27226;DHT22;14732;51.074;3.788;2024-03-23T16:45:59;9.40;99.90
27226;DHT22;14732;51.074;3.788;2024-03-23T16:48:27;9.40;99.90
27226;DHT22;14732;51.074;3.788;2024-03-23T16:50:53;9.30;99.90
27226;DHT22;14732;51.074;3.788;2024-03-23T16:53:21;9.50;99.90
27226;DHT22;14732;51.074;3.788;2024-03-23T16:55:47;9.50;99.90
27226;DHT22;14732;51.074;3.788;2024-03-23T16:58:19;9.50;99.90
27226;DHT22;14732;51.074;3.788;2024-03-23T17:00:44;9.40;99.90
27226;DHT22;14732;51.074;3.788;2024-03-23T17:03:11;9.40;99.90
27226;DHT22;14732;51.074;3.788;2024-03-23T17:05:39;9.50;99.90
27226;DHT22;14732;51.074;3.788;2024-03-23T17:08:05;9.50;99.90